Time;durP1;ratioP1;P1;durP2;ratioP2;P2;SDS_P1;SDS_P2;PMS_P1;PMS_P2;Temp;Humidity;BMP_temperature;BMP_pressure;BME280_temperature;BME280_humidity;BME280_pressure;Samples;Min_cycle;Max_cycle;Signal;HPM_P1;HPM_P2
2022/08/22 00:00:45;;;;;;;1.85;0.77;;;;;;;;;;5055187;28;20072;-54
2022/08/22 00:03:21;;;;;;;1.50;1.00;;;;;;;;;;5055305;28;20065;-54
2022/08/22 00:05:57;;;;;;;1.88;1.13;;;;;;;;;;5055158;28;20045;-54
2022/08/22 00:08:27;;;;;;;1.55;0.95;;;;;;;;;;5055109;28;20053;-53
2022/08/22 00:10:56;;;;;;;2.88;1.13;;;;;;;;;;5055116;28;20049;-51
2022/08/22 00:13:27;;;;;;;2.88;1.05;;;;;;;;;;5055141;28;20059;-54
2022/08/22 00:15:59;;;;;;;1.65;0.80;;;;;;;;;;5054231;28;20458;-54
2022/08/22 00:18:30;;;;;;;1.63;1.00;;;;;;;;;;5054957;28;20057;-52
2022/08/22 00:21:05;;;;;;;1.85;0.73;;;;;;;;;;5054818;28;20063;-51
2022/08/22 00:23:34;;;;;;;2.85;1.10;;;;;;;;;;5054079;28;20394;-54
2022/08/22 00:26:03;;;;;;;4.15;1.10;;;;;;;;;;5054743;28;20049;-54
2022/08/22 00:28:33;;;;;;;4.40;1.30;;;;;;;;;;5054567;28;20052;-54
2022/08/22 00:31:07;;;;;;;13.57;1.13;;;;;;;;;;5054231;28;20071;-54
2022/08/22 00:33:39;;;;;;;2.50;1.23;;;;;;;;;;5047737;28;20045;-54
2022/08/22 00:36:12;;;;;;;2.03;1.05;;;;;;;;;;5054521;28;20055;-54
2022/08/22 00:38:42;;;;;;;1.95;1.08;;;;;;;;;;5053691;28;20057;-54
2022/08/22 00:41:21;;;;;;;1.30;1.00;;;;;;;;;;5054737;28;20059;-55
2022/08/22 00:44:16;;;;;;;2.80;1.20;;;;;;;;;;5053787;28;20442;-54
2022/08/22 00:47:04;;;;;;;1.98;0.98;;;;;;;;;;5054327;28;20119;-54
2022/08/22 00:49:40;;;;;;;1.45;0.98;;;;;;;;;;5048972;28;20500;-54
2022/08/22 00:52:27;;;;;;;3.20;1.20;;;;;;;;;;5054321;28;20045;-52
2022/08/22 00:55:06;;;;;;;2.75;1.33;;;;;;;;;;5054353;28;20045;-54
2022/08/22 00:57:45;;;;;;;1.55;1.00;;;;;;;;;;5054280;28;20060;-53
2022/08/22 01:00:20;;;;;;;4.07;1.00;;;;;;;;;;5053992;28;20066;-54
2022/08/22 01:02:58;;;;;;;4.75;1.20;;;;;;;;;;5054059;28;20056;-54
2022/08/22 01:05:35;;;;;;;1.83;1.00;;;;;;;;;;5054136;28;20060;-53
2022/08/22 01:08:09;;;;;;;1.88;1.15;;;;;;;;;;5054008;28;20053;-53
2022/08/22 01:10:42;;;;;;;3.08;1.13;;;;;;;;;;5054055;28;20135;-53
2022/08/22 01:13:15;;;;;;;6.85;1.30;;;;;;;;;;5054003;28;20060;-54
2022/08/22 01:15:44;;;;;;;2.05;0.80;;;;;;;;;;5053910;28;20091;-51
2022/08/22 01:18:30;;;;;;;2.40;0.98;;;;;;;;;;5053527;28;20061;-54
2022/08/22 01:21:12;;;;;;;3.92;1.33;;;;;;;;;;5053492;28;20489;-54
2022/08/22 01:23:58;;;;;;;3.25;1.25;;;;;;;;;;5053763;28;20076;-52
2022/08/22 01:26:39;;;;;;;3.13;1.17;;;;;;;;;;5053837;28;20044;-52
2022/08/22 01:29:24;;;;;;;1.98;1.25;;;;;;;;;;5051693;28;20053;-52
2022/08/22 01:31:51;;;;;;;;;;;;;;;;;;5053627;28;20059;-53
2022/08/22 01:34:42;;;;;;;1.85;1.00;;;;;;;;;;5033768;28;19920;-53
2022/08/22 01:37:26;;;;;;;4.10;1.58;;;;;;;;;;5039481;28;20055;-53
2022/08/22 01:40:05;;;;;;;2.72;1.00;;;;;;;;;;5043056;28;20057;-52
2022/08/22 01:42:41;;;;;;;1.75;1.10;;;;;;;;;;5053240;28;20049;-51
2022/08/22 01:45:19;;;;;;;2.15;1.52;;;;;;;;;;5053633;28;20053;-54
2022/08/22 01:47:50;;;;;;;3.03;1.40;;;;;;;;;;5053328;28;20049;-54
2022/08/22 01:50:23;;;;;;;3.40;1.42;;;;;;;;;;5053279;28;20053;-54
2022/08/22 01:52:53;;;;;;;5.30;1.55;;;;;;;;;;5052891;28;20049;-54
2022/08/22 01:55:25;;;;;;;4.65;1.83;;;;;;;;;;5053290;28;20060;-54
2022/08/22 01:57:54;;;;;;;3.55;1.63;;;;;;;;;;5052940;28;20056;-54
2022/08/22 02:00:22;;;;;;;3.85;1.45;;;;;;;;;;5053244;28;20055;-54
2022/08/22 02:02:58;;;;;;;3.60;1.70;;;;;;;;;;5053043;28;20060;-51
2022/08/22 02:05:30;;;;;;;2.30;1.60;;;;;;;;;;5053260;28;20049;-52
2022/08/22 02:08:02;;;;;;;3.25;1.67;;;;;;;;;;5053206;28;20064;-53
2022/08/22 02:10:42;;;;;;;3.53;1.65;;;;;;;;;;5053071;28;20446;-55
2022/08/22 02:13:19;;;;;;;1.80;1.40;;;;;;;;;;5052995;28;20064;-54
2022/08/22 02:15:49;;;;;;;3.47;1.33;;;;;;;;;;5053108;28;20052;-54
2022/08/22 02:18:19;;;;;;;2.63;1.27;;;;;;;;;;5052440;28;20057;-55
2022/08/22 02:21:02;;;;;;;4.13;1.33;;;;;;;;;;5052929;28;20479;-54
2022/08/22 02:23:34;;;;;;;3.75;1.40;;;;;;;;;;5052818;28;20096;-55
2022/08/22 02:26:10;;;;;;;2.90;1.67;;;;;;;;;;5053142;28;20037;-55
2022/08/22 02:28:40;;;;;;;2.20;1.30;;;;;;;;;;5053046;28;20049;-53
2022/08/22 02:31:09;;;;;;;3.75;1.60;;;;;;;;;;5052591;28;20067;-55
2022/08/22 02:33:42;;;;;;;3.55;1.35;;;;;;;;;;5038276;28;20056;-54
2022/08/22 02:36:16;;;;;;;2.65;1.58;;;;;;;;;;5032969;28;20050;-55
2022/08/22 02:38:49;;;;;;;2.85;1.50;;;;;;;;;;5052498;28;20049;-52
2022/08/22 02:41:22;;;;;;;3.33;1.90;;;;;;;;;;5052984;28;20061;-55
2022/08/22 02:43:53;;;;;;;2.30;1.27;;;;;;;;;;5052927;28;20049;-52
2022/08/22 02:46:26;;;;;;;6.75;1.80;;;;;;;;;;5052966;28;20045;-52
2022/08/22 02:48:58;;;;;;;3.08;1.15;;;;;;;;;;5056275;28;20446;-55
2022/08/22 02:51:30;;;;;;;2.45;1.35;;;;;;;;;;5056281;28;20049;-55
2022/08/22 02:54:01;;;;;;;4.18;1.90;;;;;;;;;;5056269;28;20053;-55
2022/08/22 02:56:31;;;;;;;2.75;1.67;;;;;;;;;;5056433;28;20049;-55
2022/08/22 02:59:11;;;;;;;2.60;1.60;;;;;;;;;;5056457;28;20064;-55
2022/08/22 03:01:39;;;;;;;4.63;1.60;;;;;;;;;;5056417;28;20057;-53
2022/08/22 03:04:23;;;;;;;2.90;1.92;;;;;;;;;;5056290;28;20052;-55
2022/08/22 03:07:04;;;;;;;3.15;1.67;;;;;;;;;;5056330;28;20052;-55
2022/08/22 03:09:35;;;;;;;2.80;1.25;;;;;;;;;;5056409;28;20060;-55
2022/08/22 03:12:08;;;;;;;3.97;1.27;;;;;;;;;;5056189;28;20096;-55
2022/08/22 03:14:40;;;;;;;2.10;1.38;;;;;;;;;;5056172;28;20053;-55
2022/08/22 03:17:10;;;;;;;2.08;1.30;;;;;;;;;;5055688;28;20469;-52
2022/08/22 03:19:46;;;;;;;2.58;1.23;;;;;;;;;;5055685;28;20430;-55
2022/08/22 03:22:16;;;;;;;2.75;1.15;;;;;;;;;;5056004;28;20064;-54
2022/08/22 03:24:47;;;;;;;1.75;1.20;;;;;;;;;;5055624;28;20053;-53
2022/08/22 03:27:16;;;;;;;2.00;1.40;;;;;;;;;;5055648;28;20044;-54
2022/08/22 03:29:46;;;;;;;1.55;1.00;;;;;;;;;;5055517;28;20118;-55
2022/08/22 03:32:14;;;;;;;4.07;1.67;;;;;;;;;;5052061;28;20061;-54
2022/08/22 03:34:56;;;;;;;3.55;1.20;;;;;;;;;;5035752;28;20056;-55
2022/08/22 03:37:26;;;;;;;2.30;1.20;;;;;;;;;;5041509;28;20378;-53
2022/08/22 03:39:57;;;;;;;1.65;1.10;;;;;;;;;;5055495;28;20053;-53
2022/08/22 03:42:41;;;;;;;2.13;1.13;;;;;;;;;;5055662;28;20064;-53
2022/08/22 03:45:28;;;;;;;3.03;1.17;;;;;;;;;;5055680;28;20052;-52
2022/08/22 03:48:12;;;;;;;2.30;1.15;;;;;;;;;;5050298;28;20389;-55
2022/08/22 03:50:54;;;;;;;4.20;1.60;;;;;;;;;;5044371;28;20057;-55
2022/08/22 03:53:33;;;;;;;3.83;1.30;;;;;;;;;;5055568;28;20052;-54
2022/08/22 03:56:17;;;;;;;3.08;1.20;;;;;;;;;;5055501;28;20045;-55
2022/08/22 03:58:54;;;;;;;3.58;1.67;;;;;;;;;;5054051;28;20466;-54
2022/08/22 04:01:36;;;;;;;2.45;1.40;;;;;;;;;;5055399;28;20053;-53
2022/08/22 04:04:20;;;;;;;3.95;1.48;;;;;;;;;;5055315;28;20064;-54
2022/08/22 04:06:52;;;;;;;3.42;1.38;;;;;;;;;;5054803;28;20472;-55
2022/08/22 04:09:37;;;;;;;2.17;1.50;;;;;;;;;;5054992;28;20470;-53
2022/08/22 04:12:17;;;;;;;3.40;1.50;;;;;;;;;;5055373;28;20048;-53
2022/08/22 04:15:03;;;;;;;2.85;1.40;;;;;;;;;;5055009;28;20053;-52
2022/08/22 04:17:40;;;;;;;2.83;1.67;;;;;;;;;;5054922;28;20140;-55
2022/08/22 04:20:28;;;;;;;2.00;1.25;;;;;;;;;;5054853;28;20057;-54
2022/08/22 04:23:17;;;;;;;3.83;1.77;;;;;;;;;;5029520;28;20157;-54
2022/08/22 04:25:47;;;;;;;4.82;1.90;;;;;;;;;;5054835;28;20055;-54
2022/08/22 04:28:16;;;;;;;3.42;1.50;;;;;;;;;;5055020;28;20053;-52
2022/08/22 04:30:46;;;;;;;2.50;1.25;;;;;;;;;;5054528;28;20052;-52
2022/08/22 04:33:17;;;;;;;1.75;1.38;;;;;;;;;;5054740;28;20068;-55
2022/08/22 04:35:46;;;;;;;2.42;1.42;;;;;;;;;;5054597;28;20048;-51
2022/08/22 04:38:16;;;;;;;3.55;1.70;;;;;;;;;;5054599;28;20059;-52
2022/08/22 04:40:50;;;;;;;2.08;1.38;;;;;;;;;;5054725;28;20045;-54
2022/08/22 04:43:19;;;;;;;2.65;1.55;;;;;;;;;;5054607;28;20053;-52
2022/08/22 04:45:50;;;;;;;2.53;1.55;;;;;;;;;;5054235;28;20057;-54
2022/08/22 04:48:21;;;;;;;2.13;1.48;;;;;;;;;;5054422;28;20071;-55
2022/08/22 04:50:49;;;;;;;5.20;1.58;;;;;;;;;;5034517;28;20056;-55
2022/08/22 04:53:23;;;;;;;5.18;1.90;;;;;;;;;;5047808;28;20053;-54
2022/08/22 04:55:55;;;;;;;2.85;1.58;;;;;;;;;;5054110;28;20085;-55
2022/08/22 04:58:29;;;;;;;4.22;1.60;;;;;;;;;;5054178;28;20045;-54
2022/08/22 05:00:57;;;;;;;3.25;1.40;;;;;;;;;;5054369;28;20052;-55
2022/08/22 05:03:27;;;;;;;2.22;1.33;;;;;;;;;;5054249;28;20072;-55
2022/08/22 05:05:55;;;;;;;3.20;1.50;;;;;;;;;;5054300;28;20045;-55
2022/08/22 05:08:24;;;;;;;4.05;1.95;;;;;;;;;;5053511;28;20397;-55
2022/08/22 05:10:52;;;;;;;3.63;1.95;;;;;;;;;;5053626;28;20139;-51
2022/08/22 05:13:22;;;;;;;2.15;1.13;;;;;;;;;;5054401;28;20053;-51
2022/08/22 05:15:51;;;;;;;3.60;2.20;;;;;;;;;;5053888;28;20048;-52
2022/08/22 05:18:19;;;;;;;2.33;1.60;;;;;;;;;;5053578;28;20477;-52
2022/08/22 05:20:48;;;;;;;4.63;2.15;;;;;;;;;;5053928;28;20098;-52
2022/08/22 05:23:18;;;;;;;4.05;1.67;;;;;;;;;;5053728;28;20063;-53
2022/08/22 05:25:49;;;;;;;4.05;1.83;;;;;;;;;;5053619;28;20044;-51
2022/08/22 05:28:22;;;;;;;2.95;2.17;;;;;;;;;;5053439;28;20472;-52
2022/08/22 05:30:48;;;;;;;4.32;2.17;;;;;;;;;;5053088;28;20417;-51
2022/08/22 05:33:18;;;;;;;4.68;2.08;;;;;;;;;;5053613;28;20052;-55
2022/08/22 05:35:50;;;;;;;4.20;2.28;;;;;;;;;;5053776;28;20087;-52
2022/08/22 05:38:20;;;;;;;5.20;1.60;;;;;;;;;;5053481;28;20059;-54
2022/08/22 05:40:52;;;;;;;3.17;1.73;;;;;;;;;;5053583;28;20067;-55
2022/08/22 05:43:21;;;;;;;2.63;1.40;;;;;;;;;;5033191;28;20397;-54
2022/08/22 05:45:51;;;;;;;6.25;2.15;;;;;;;;;;5033612;28;20045;-53
2022/08/22 05:48:19;;;;;;;4.07;1.98;;;;;;;;;;5033661;28;20061;-55
2022/08/22 05:50:48;;;;;;;2.25;1.33;;;;;;;;;;5052812;28;20052;-55
2022/08/22 05:53:16;;;;;;;6.35;2.00;;;;;;;;;;5038324;28;20056;-56
2022/08/22 05:55:48;;;;;;;4.90;1.90;;;;;;;;;;5033584;28;20041;-54
2022/08/22 05:58:27;;;;;;;5.32;1.70;;;;;;;;;;5049298;28;20159;-55
2022/08/22 06:00:57;;;;;;;3.08;1.67;;;;;;;;;;5052456;28;20519;-54
2022/08/22 06:03:25;;;;;;;4.53;1.67;;;;;;;;;;5052250;28;20374;-55
2022/08/22 06:05:54;;;;;;;2.45;1.30;;;;;;;;;;5052115;28;20048;-55
2022/08/22 06:08:23;;;;;;;3.58;1.77;;;;;;;;;;5052817;28;20060;-52
2022/08/22 06:10:52;;;;;;;3.15;1.25;;;;;;;;;;5052804;28;20144;-55
2022/08/22 06:13:20;;;;;;;5.10;1.88;;;;;;;;;;5052459;28;20504;-55
2022/08/22 06:15:50;;;;;;;2.97;1.10;;;;;;;;;;5052259;28;20048;-55
2022/08/22 06:18:20;;;;;;;3.95;1.45;;;;;;;;;;5050049;28;20132;-56
2022/08/22 06:20:48;;;;;;;4.53;1.58;;;;;;;;;;5053013;28;20071;-55
2022/08/22 06:23:16;;;;;;;3.83;1.52;;;;;;;;;;5056150;28;20481;-52
2022/08/22 06:25:45;;;;;;;2.60;1.50;;;;;;;;;;5056720;28;20680;-54
2022/08/22 06:28:13;;;;;;;3.60;1.60;;;;;;;;;;5056581;28;20401;-55
2022/08/22 06:30:40;;;;;;;5.18;1.60;;;;;;;;;;5056247;28;20056;-60
2022/08/22 06:33:09;;;;;;;6.20;1.70;;;;;;;;;;5056622;28;20481;-59
2022/08/22 06:38:17;;;;;;;2.85;1.50;;;;;;;;;;5055560;28;20045;-60
2022/08/22 06:40:47;;;;;;;4.18;1.58;;;;;;;;;;5056197;28;20135;-52
2022/08/22 06:43:14;;;;;;;3.67;1.60;;;;;;;;;;5056300;28;20131;-54
2022/08/22 06:45:41;;;;;;;3.70;1.50;;;;;;;;;;5052646;28;20111;-51
2022/08/22 06:48:16;;;;;;;3.65;1.60;;;;;;;;;;5054238;28;20128;-57
2022/08/22 06:50:43;;;;;;;6.13;1.60;;;;;;;;;;5055764;28;20049;-57
2022/08/22 06:53:13;;;;;;;4.03;1.60;;;;;;;;;;5056738;28;20053;-56
2022/08/22 06:55:42;;;;;;;6.00;1.98;;;;;;;;;;5055213;28;20139;-56
2022/08/22 06:58:12;;;;;;;4.35;1.85;;;;;;;;;;5052544;28;20045;-56
2022/08/22 07:00:41;;;;;;;5.10;1.77;;;;;;;;;;5055699;28;20486;-53
2022/08/22 07:03:12;;;;;;;4.70;1.95;;;;;;;;;;5055396;28;20061;-54
2022/08/22 07:05:41;;;;;;;4.03;1.35;;;;;;;;;;5054664;28;20053;-54
2022/08/22 07:08:09;;;;;;;2.90;1.33;;;;;;;;;;5054933;28;20049;-55
2022/08/22 07:10:35;;;;;;;3.53;1.63;;;;;;;;;;5054846;28;20044;-58
2022/08/22 07:13:07;;;;;;;3.40;1.45;;;;;;;;;;5054239;28;20468;-56
2022/08/22 07:15:35;;;;;;;5.15;1.83;;;;;;;;;;5055447;28;20424;-55
2022/08/22 07:18:03;;;;;;;4.70;1.77;;;;;;;;;;5055199;28;20053;-56
2022/08/22 07:20:30;;;;;;;3.50;1.52;;;;;;;;;;5054585;28;20510;-55
2022/08/22 07:23:00;;;;;;;4.95;1.77;;;;;;;;;;5054486;28;20102;-53
2022/08/22 07:25:27;;;;;;;4.85;1.50;;;;;;;;;;5054928;28;20088;-51
2022/08/22 07:28:00;;;;;;;3.78;1.40;;;;;;;;;;5055184;28;20045;-54
2022/08/22 07:30:34;;;;;;;4.07;1.30;;;;;;;;;;5054371;28;20049;-55
2022/08/22 07:33:01;;;;;;;3.70;1.25;;;;;;;;;;5055298;28;20145;-56
2022/08/22 07:35:29;;;;;;;7.78;1.73;;;;;;;;;;5051771;28;20048;-56
2022/08/22 07:38:00;;;;;;;4.38;1.60;;;;;;;;;;5055270;28;20045;-56
2022/08/22 07:40:32;;;;;;;5.20;1.50;;;;;;;;;;5055276;28;20076;-56
2022/08/22 07:43:01;;;;;;;5.72;1.40;;;;;;;;;;5052492;28;20052;-53
2022/08/22 07:45:33;;;;;;;4.28;1.48;;;;;;;;;;5046535;28;20115;-53
2022/08/22 07:48:04;;;;;;;3.17;1.27;;;;;;;;;;5045956;28;20128;-50
2022/08/22 07:50:33;;;;;;;3.78;1.40;;;;;;;;;;5050139;28;20052;-52
2022/08/22 07:53:04;;;;;;;3.63;1.30;;;;;;;;;;5049017;28;20091;-56
2022/08/22 07:55:30;;;;;;;5.18;1.55;;;;;;;;;;5051513;28;20048;-56
2022/08/22 07:57:59;;;;;;;3.65;1.38;;;;;;;;;;5048379;28;20049;-56
2022/08/22 08:00:27;;;;;;;3.42;1.10;;;;;;;;;;5054556;28;20469;-53
2022/08/22 08:02:57;;;;;;;4.82;1.70;;;;;;;;;;5054456;28;20053;-55
2022/08/22 08:05:24;;;;;;;2.50;1.45;;;;;;;;;;5042235;28;20115;-56
2022/08/22 08:07:52;;;;;;;7.57;1.38;;;;;;;;;;5053833;28;20056;-55
2022/08/22 08:10:22;;;;;;;3.50;1.30;;;;;;;;;;5054143;28;20049;-52
2022/08/22 08:12:50;;;;;;;6.43;1.50;;;;;;;;;;5055220;28;20053;-55
2022/08/22 08:15:17;;;;;;;3.17;1.20;;;;;;;;;;5049421;28;20045;-53
2022/08/22 08:17:47;;;;;;;2.92;1.10;;;;;;;;;;5042406;28;20045;-54
2022/08/22 08:20:17;;;;;;;3.10;1.20;;;;;;;;;;5054578;28;20132;-52
2022/08/22 08:22:45;;;;;;;3.15;1.20;;;;;;;;;;5054185;28;20063;-51
2022/08/22 08:25:13;;;;;;;6.00;1.20;;;;;;;;;;5054565;28;20136;-59
2022/08/22 08:30:34;;;;;;;3.50;1.33;;;;;;;;;;5053053;28;20056;-54
2022/08/22 08:33:01;;;;;;;2.58;1.38;;;;;;;;;;5047032;28;20041;-54
2022/08/22 08:35:30;;;;;;;2.30;1.10;;;;;;;;;;5054902;28;20143;-55
2022/08/22 08:37:58;;;;;;;4.40;1.20;;;;;;;;;;5054336;28;20107;-51
2022/08/22 08:40:34;;;;;;;4.30;1.30;;;;;;;;;;5053730;28;20077;-52
2022/08/22 08:43:28;;;;;;;3.67;1.23;;;;;;;;;;5054223;28;20135;-50
2022/08/22 08:46:13;;;;;;;3.22;1.30;;;;;;;;;;5054480;28;20471;-51
2022/08/22 08:48:46;;;;;;;5.32;1.52;;;;;;;;;;5053952;28;20111;-54
2022/08/22 08:51:22;;;;;;;9.10;1.80;;;;;;;;;;5055094;28;20052;-54
2022/08/22 08:54:07;;;;;;;3.60;1.20;;;;;;;;;;5056222;28;20057;-53
2022/08/22 08:56:37;;;;;;;4.55;1.20;;;;;;;;;;5044409;28;20041;-54
2022/08/22 08:59:12;;;;;;;2.17;1.05;;;;;;;;;;5054463;28;20052;-58
2022/08/22 09:01:52;;;;;;;1.90;1.10;;;;;;;;;;5054113;28;20489;-59
2022/08/22 09:04:32;;;;;;;3.58;1.25;;;;;;;;;;5054091;28;20069;-56
2022/08/22 09:07:08;;;;;;;4.53;1.52;;;;;;;;;;5053731;28;20466;-58
2022/08/22 09:09:47;;;;;;;1.73;0.93;;;;;;;;;;5046299;28;20041;-57
2022/08/22 09:12:31;;;;;;;4.80;1.33;;;;;;;;;;5054170;28;20041;-58
2022/08/22 09:15:07;;;;;;;6.63;1.50;;;;;;;;;;5053710;28;20060;-58
2022/08/22 09:17:44;;;;;;;5.22;1.50;;;;;;;;;;5054573;28;20435;-57
2022/08/22 09:20:16;;;;;;;3.15;1.30;;;;;;;;;;5045375;28;20535;-56
2022/08/22 09:23:01;;;;;;;4.00;1.33;;;;;;;;;;5054411;28;20064;-61
2022/08/22 09:25:28;;;;;;;7.45;1.60;;;;;;;;;;5054280;28;20136;-61
2022/08/22 09:27:58;;;;;;;3.65;1.00;;;;;;;;;;5053662;28;20127;-60
2022/08/22 09:30:28;;;;;;;2.97;1.30;;;;;;;;;;5053435;28;20087;-60
2022/08/22 09:32:57;;;;;;;4.10;1.35;;;;;;;;;;5052252;28;20386;-51
2022/08/22 09:35:30;;;;;;;3.40;1.30;;;;;;;;;;5052846;28;20080;-50
2022/08/22 09:38:11;;;;;;;3.17;1.30;;;;;;;;;;5052349;28;20049;-51
2022/08/22 09:40:39;;;;;;;5.30;1.50;;;;;;;;;;5042397;28;20052;-48
2022/08/22 09:43:07;;;;;;;5.18;1.50;;;;;;;;;;5052586;28;20053;-48
2022/08/22 09:45:41;;;;;;;2.28;1.30;;;;;;;;;;5052806;28;20076;-50
2022/08/22 09:48:31;;;;;;;4.82;1.40;;;;;;;;;;5053117;28;20055;-48
2022/08/22 09:51:03;;;;;;;4.57;1.30;;;;;;;;;;5039508;28;20064;-48
2022/08/22 09:53:40;;;;;;;3.03;1.27;;;;;;;;;;5052721;28;20055;-49
2022/08/22 09:56:08;;;;;;;3.90;1.20;;;;;;;;;;5051816;28;20055;-48
2022/08/22 09:58:37;;;;;;;3.30;1.45;;;;;;;;;;5051716;28;20041;-47
2022/08/22 10:01:10;;;;;;;2.28;1.10;;;;;;;;;;5052576;28;20052;-51
2022/08/22 10:03:52;;;;;;;2.93;1.43;;;;;;;;;;5053306;28;20045;-49
2022/08/22 10:06:20;;;;;;;4.45;1.63;;;;;;;;;;5053533;28;20069;-51
2022/08/22 10:08:49;;;;;;;3.75;1.33;;;;;;;;;;5052286;28;20064;-50
2022/08/22 10:11:19;;;;;;;3.45;1.40;;;;;;;;;;5052345;28;20048;-47
2022/08/22 10:13:49;;;;;;;4.05;1.27;;;;;;;;;;5052262;28;20119;-49
2022/08/22 10:16:20;;;;;;;4.88;1.42;;;;;;;;;;5051982;28;20466;-49
2022/08/22 10:18:58;;;;;;;4.82;1.80;;;;;;;;;;5051016;28;20132;-51
2022/08/22 10:21:29;;;;;;;3.63;1.70;;;;;;;;;;5052144;28;20131;-50
2022/08/22 10:23:59;;;;;;;3.30;1.67;;;;;;;;;;5052194;28;20060;-49
2022/08/22 10:26:30;;;;;;;5.07;1.50;;;;;;;;;;5052418;28;20099;-48
2022/08/22 10:29:00;;;;;;;6.63;1.63;;;;;;;;;;5041340;28;20049;-51
2022/08/22 10:31:32;;;;;;;1.90;1.20;;;;;;;;;;5049251;28;20143;-50
2022/08/22 10:34:02;;;;;;;3.38;1.27;;;;;;;;;;5047601;28;20057;-49
2022/08/22 10:36:32;;;;;;;3.17;1.42;;;;;;;;;;5051458;28;20045;-47
2022/08/22 10:39:00;;;;;;;4.38;1.30;;;;;;;;;;5051732;28;20131;-49
2022/08/22 10:41:29;;;;;;;3.55;1.38;;;;;;;;;;5049458;28;20113;-49
2022/08/22 10:44:01;;;;;;;3.55;1.17;;;;;;;;;;5040965;28;20052;-49
2022/08/22 10:46:32;;;;;;;3.35;1.20;;;;;;;;;;5052230;28;20057;-52
2022/08/22 10:48:59;;;;;;;3.38;1.52;;;;;;;;;;5051200;28;20466;-50
2022/08/22 10:51:34;;;;;;;4.60;1.33;;;;;;;;;;5051449;28;20478;-49
2022/08/22 10:54:19;;;;;;;2.75;1.40;;;;;;;;;;5051490;28;20140;-50
2022/08/22 10:56:45;;;;;;;;;;;;;;;;;;5051398;28;20049;-49
2022/08/22 10:59:19;;;;;;;3.30;1.58;;;;;;;;;;5050830;28;19925;-51
2022/08/22 11:02:06;;;;;;;3.75;1.67;;;;;;;;;;5047684;28;20146;-48
2022/08/22 11:04:41;;;;;;;4.88;1.40;;;;;;;;;;5049870;28;20060;-51
2022/08/22 11:07:14;;;;;;;4.43;1.60;;;;;;;;;;5044392;28;20063;-51
2022/08/22 11:09:42;;;;;;;3.88;1.30;;;;;;;;;;5054204;28;20068;-49
2022/08/22 11:12:15;;;;;;;4.00;1.58;;;;;;;;;;5053841;28;20061;-51
2022/08/22 11:15:01;;;;;;;3.35;1.50;;;;;;;;;;5054338;28;20053;-47
2022/08/22 11:17:33;;;;;;;3.80;1.25;;;;;;;;;;5055494;28;20065;-48
2022/08/22 11:20:14;;;;;;;4.50;1.30;;;;;;;;;;5054796;28;20045;-50
2022/08/22 11:22:44;;;;;;;3.67;1.48;;;;;;;;;;5056062;28;20056;-48
2022/08/22 11:25:14;;;;;;;4.72;1.35;;;;;;;;;;5055982;28;20060;-51
2022/08/22 11:27:46;;;;;;;3.83;1.40;;;;;;;;;;5053638;28;20063;-47
2022/08/22 11:30:14;;;;;;;3.83;1.58;;;;;;;;;;5051276;28;20137;-49
2022/08/22 11:32:48;;;;;;;4.03;1.33;;;;;;;;;;5049844;28;20049;-48
2022/08/22 11:35:20;;;;;;;4.03;1.45;;;;;;;;;;5056852;28;20463;-49
2022/08/22 11:37:49;;;;;;;4.25;1.30;;;;;;;;;;5056555;28;20135;-51
2022/08/22 11:40:20;;;;;;;2.47;1.13;;;;;;;;;;5055854;28;20053;-50
2022/08/22 11:42:53;;;;;;;2.90;1.13;;;;;;;;;;5055846;28;20048;-51
2022/08/22 11:45:23;;;;;;;3.75;1.30;;;;;;;;;;5053350;28;20049;-50
2022/08/22 11:47:56;;;;;;;4.75;1.30;;;;;;;;;;5057684;28;20134;-49
2022/08/22 11:50:26;;;;;;;4.05;1.35;;;;;;;;;;5056477;28;20060;-50
2022/08/22 11:52:58;;;;;;;3.67;1.48;;;;;;;;;;5045309;28;20081;-49
2022/08/22 11:55:31;;;;;;;3.13;1.52;;;;;;;;;;5051666;28;20531;-49
2022/08/22 11:58:06;;;;;;;3.58;1.20;;;;;;;;;;5053818;28;20045;-50
2022/08/22 12:00:34;;;;;;;3.95;1.15;;;;;;;;;;5056357;28;20056;-49
2022/08/22 12:03:27;;;;;;;2.95;1.15;;;;;;;;;;5055745;28;20132;-49
2022/08/22 12:05:55;;;;;;;4.78;1.13;;;;;;;;;;5054639;28;20106;-50
2022/08/22 12:08:45;;;;;;;5.03;1.33;;;;;;;;;;5055065;28;20075;-49
2022/08/22 12:11:13;;;;;;;2.60;1.17;;;;;;;;;;5055058;28;20053;-49
2022/08/22 12:13:48;;;;;;;3.75;1.27;;;;;;;;;;5053571;28;20055;-53
2022/08/22 12:16:18;;;;;;;3.35;1.20;;;;;;;;;;5054428;28;20045;-49
2022/08/22 12:18:53;;;;;;;2.42;0.90;;;;;;;;;;5054843;28;20087;-49
2022/08/22 12:21:50;;;;;;;3.75;1.33;;;;;;;;;;5057134;28;20057;-48
2022/08/22 12:24:31;;;;;;;4.70;1.30;;;;;;;;;;5055755;28;20079;-50
2022/08/22 12:27:13;;;;;;;3.03;1.30;;;;;;;;;;5051075;28;20393;-48
2022/08/22 12:29:42;;;;;;;2.42;1.20;;;;;;;;;;5053726;28;20063;-49
2022/08/22 12:32:33;;;;;;;2.92;1.30;;;;;;;;;;5053759;28;20052;-49
2022/08/22 12:35:10;;;;;;;4.20;1.30;;;;;;;;;;5049518;28;20052;-52
2022/08/22 12:37:39;;;;;;;4.85;1.55;;;;;;;;;;5053562;28;20465;-52
2022/08/22 12:40:14;;;;;;;6.53;1.60;;;;;;;;;;5053718;28;20369;-50
2022/08/22 12:42:48;;;;;;;3.50;1.40;;;;;;;;;;5055150;28;20114;-49
2022/08/22 12:45:32;;;;;;;4.78;1.70;;;;;;;;;;5053959;28;20063;-49
2022/08/22 12:48:09;;;;;;;5.22;1.70;;;;;;;;;;5054395;28;20049;-52
2022/08/22 12:50:42;;;;;;;3.40;1.10;;;;;;;;;;5055607;28;20049;-51
2022/08/22 12:53:15;;;;;;;4.30;1.30;;;;;;;;;;5055496;28;20057;-51
2022/08/22 12:55:51;;;;;;;2.22;1.02;;;;;;;;;;5055638;28;20060;-50
2022/08/22 12:58:24;;;;;;;5.25;1.10;;;;;;;;;;5055505;28;20060;-51
2022/08/22 13:00:51;;;;;;;5.32;1.40;;;;;;;;;;5055183;28;20053;-50
2022/08/22 13:03:22;;;;;;;4.82;1.35;;;;;;;;;;5054827;28;20080;-49
2022/08/22 13:05:51;;;;;;;3.97;1.30;;;;;;;;;;5054681;28;20057;-50
2022/08/22 13:08:22;;;;;;;5.43;1.30;;;;;;;;;;5055054;28;20052;-52
2022/08/22 13:10:50;;;;;;;5.60;1.25;;;;;;;;;;5054277;28;20049;-50
2022/08/22 13:13:25;;;;;;;5.47;1.92;;;;;;;;;;5052508;28;20486;-48
2022/08/22 13:15:51;;;;;;;;;;;;;;;;;;5054895;28;20052;-55
2022/08/22 13:18:20;;;;;;;3.95;1.20;;;;;;;;;;5051767;28;19924;-50
2022/08/22 13:20:49;;;;;;;1.73;0.90;;;;;;;;;;5053275;28;20060;-51
2022/08/22 13:23:19;;;;;;;4.07;0.88;;;;;;;;;;5052232;28;20060;-53
2022/08/22 13:25:55;;;;;;;5.18;1.23;;;;;;;;;;5053843;28;20131;-51
2022/08/22 13:28:22;;;;;;;4.05;1.30;;;;;;;;;;5040665;28;20079;-51
2022/08/22 13:30:51;;;;;;;3.38;1.30;;;;;;;;;;5051743;28;20111;-50
2022/08/22 13:33:23;;;;;;;3.50;0.95;;;;;;;;;;5053264;28;20049;-50
2022/08/22 13:35:52;;;;;;;3.35;0.90;;;;;;;;;;5052864;28;20059;-49
2022/08/22 13:38:22;;;;;;;1.90;0.90;;;;;;;;;;5053605;28;20104;-50
2022/08/22 13:40:51;;;;;;;3.72;1.05;;;;;;;;;;5051922;28;20056;-51
2022/08/22 13:43:18;;;;;;;3.50;0.90;;;;;;;;;;5053677;28;20056;-50
2022/08/22 13:45:52;;;;;;;1.80;0.70;;;;;;;;;;5052772;28;20059;-50
2022/08/22 13:48:21;;;;;;;3.60;0.93;;;;;;;;;;5053466;28;20049;-51
2022/08/22 13:50:56;;;;;;;2.10;1.00;;;;;;;;;;5044569;28;20052;-50
2022/08/22 13:53:34;;;;;;;6.95;1.20;;;;;;;;;;5052837;28;20132;-51
2022/08/22 13:56:05;;;;;;;2.63;0.80;;;;;;;;;;5053241;28;20049;-50
2022/08/22 13:58:38;;;;;;;2.92;0.95;;;;;;;;;;5052125;28;20045;-49
2022/08/22 14:01:12;;;;;;;3.60;1.00;;;;;;;;;;5051842;28;20064;-51
2022/08/22 14:03:44;;;;;;;2.10;0.98;;;;;;;;;;5051398;28;20453;-49
2022/08/22 14:06:16;;;;;;;1.65;0.80;;;;;;;;;;5052027;28;20520;-49
2022/08/22 14:08:44;;;;;;;3.28;0.90;;;;;;;;;;5051632;28;20132;-51
2022/08/22 14:11:12;;;;;;;1.58;0.88;;;;;;;;;;5052757;28;20056;-51
2022/08/22 14:13:40;;;;;;;4.15;0.80;;;;;;;;;;5052633;28;20052;-49
2022/08/22 14:16:09;;;;;;;2.90;0.90;;;;;;;;;;5047675;28;20049;-51
2022/08/22 14:18:38;;;;;;;2.47;0.75;;;;;;;;;;5046084;28;20139;-50
2022/08/22 14:21:19;;;;;;;2.05;0.70;;;;;;;;;;5050689;28;20045;-49
2022/08/22 14:23:50;;;;;;;2.75;0.60;;;;;;;;;;5035254;28;20140;-50
2022/08/22 14:26:24;;;;;;;1.33;0.70;;;;;;;;;;5052485;28;20454;-51
2022/08/22 14:28:53;;;;;;;2.93;0.90;;;;;;;;;;5051368;28;20052;-50
2022/08/22 14:31:23;;;;;;;2.97;0.90;;;;;;;;;;5051744;28;20362;-50
2022/08/22 14:33:51;;;;;;;4.70;1.08;;;;;;;;;;5052373;28;20040;-50
2022/08/22 14:36:20;;;;;;;1.83;0.88;;;;;;;;;;5053031;28;20131;-49
2022/08/22 14:38:51;;;;;;;1.83;0.60;;;;;;;;;;5051448;28;20065;-55
2022/08/22 14:41:24;;;;;;;2.78;0.95;;;;;;;;;;5052058;28;20045;-51
2022/08/22 14:43:53;;;;;;;3.58;0.70;;;;;;;;;;5054037;28;20059;-47
2022/08/22 14:46:22;;;;;;;3.67;1.15;;;;;;;;;;5055755;28;20518;-49
2022/08/22 14:49:02;;;;;;;2.65;0.70;;;;;;;;;;5054944;28;20075;-48
2022/08/22 14:51:29;;;;;;;3.25;1.17;;;;;;;;;;5055655;28;20068;-47
2022/08/22 14:54:08;;;;;;;2.00;1.10;;;;;;;;;;5053961;28;20045;-48
2022/08/22 14:56:36;;;;;;;6.10;0.93;;;;;;;;;;5056127;28;20049;-50
2022/08/22 14:59:04;;;;;;;2.15;0.70;;;;;;;;;;5050068;28;20053;-47
2022/08/22 15:01:31;;;;;;;2.35;0.90;;;;;;;;;;5055572;28;20466;-47
2022/08/22 15:04:01;;;;;;;2.38;0.85;;;;;;;;;;5055247;28;20053;-48
2022/08/22 15:06:33;;;;;;;2.00;1.00;;;;;;;;;;5054994;28;20139;-48
2022/08/22 15:09:03;;;;;;;3.45;1.08;;;;;;;;;;5049587;28;20441;-48
2022/08/22 15:11:30;;;;;;;4.93;1.10;;;;;;;;;;5055573;28;20090;-48
2022/08/22 15:13:59;;;;;;;1.77;0.90;;;;;;;;;;5055451;28;20045;-47
2022/08/22 15:16:30;;;;;;;2.70;0.85;;;;;;;;;;5053992;28;20728;-47
2022/08/22 15:18:56;;;;;;;2.60;0.80;;;;;;;;;;5054970;28;20053;-47
2022/08/22 15:21:25;;;;;;;2.33;0.82;;;;;;;;;;5055732;28;20139;-48